createdAt,value
2022-08-14T00:03:37.718Z,1019
2022-08-14T00:13:37.704Z,1019
2022-08-14T00:23:37.710Z,1019
2022-08-14T00:33:39.376Z,1019
2022-08-14T00:43:37.658Z,1019
2022-08-14T00:53:37.668Z,1019
2022-08-14T01:03:37.663Z,1019
2022-08-14T01:13:42.094Z,1019
2022-08-14T01:23:41.912Z,1019
2022-08-14T01:33:52.220Z,1019
2022-08-14T01:43:37.633Z,1019
2022-08-14T01:53:37.648Z,1018
2022-08-14T02:03:37.648Z,1018
2022-08-14T02:13:37.649Z,1018
2022-08-14T02:23:37.619Z,1018
2022-08-14T02:33:39.222Z,1018
2022-08-14T02:43:46.096Z,1018
2022-08-14T02:53:37.590Z,1018
2022-08-14T03:03:38.601Z,1018
2022-08-14T03:13:37.559Z,1018
2022-08-14T03:23:38.369Z,1018
2022-08-14T03:33:40.224Z,1018
2022-08-14T03:43:37.570Z,1018
2022-08-14T03:53:37.579Z,1018
2022-08-14T04:03:37.588Z,1018
2022-08-14T04:23:37.549Z,1018
2022-08-14T04:33:37.552Z,1018
2022-08-14T04:43:38.899Z,1018
2022-08-14T04:53:40.977Z,1018
2022-08-14T05:03:37.614Z,1018
2022-08-14T05:13:53.095Z,1018
2022-08-14T05:23:37.511Z,1018
2022-08-14T05:33:37.511Z,1018
2022-08-14T05:43:41.089Z,1018
2022-08-14T05:53:37.482Z,1018
2022-08-14T06:03:37.491Z,1018
2022-08-14T06:13:40.914Z,1017
2022-08-14T06:23:37.439Z,1017
2022-08-14T06:35:01.593Z,1017
2022-08-14T06:43:37.442Z,1017
2022-08-14T06:53:37.427Z,1017
2022-08-14T07:03:37.403Z,1017
2022-08-14T07:13:37.371Z,1017
2022-08-14T07:23:40.064Z,1017
2022-08-14T07:33:37.384Z,1017
2022-08-14T07:43:37.345Z,1017
2022-08-14T07:53:39.221Z,1017
2022-08-14T08:03:37.466Z,1017
2022-08-14T08:13:39.376Z,1017
2022-08-14T08:23:40.951Z,1016
2022-08-14T08:33:37.837Z,1016
2022-08-14T08:43:38.179Z,1016
2022-08-14T08:53:37.290Z,1016
2022-08-14T09:03:40.828Z,1016
2022-08-14T09:13:37.273Z,1016
2022-08-14T09:24:26.034Z,1016
2022-08-14T09:33:37.233Z,1015
2022-08-14T09:43:37.252Z,1015
2022-08-14T09:54:13.171Z,1015
2022-08-14T10:03:37.232Z,1015
2022-08-14T10:13:43.056Z,1015
2022-08-14T10:23:37.180Z,1015
2022-08-14T10:33:37.177Z,1015
2022-08-14T10:43:37.152Z,1014
2022-08-14T10:53:37.140Z,1014
2022-08-14T11:13:37.096Z,1014
2022-08-14T11:23:38.036Z,1014
2022-08-14T11:33:37.100Z,1014
2022-08-14T11:43:37.099Z,1014
2022-08-14T11:53:37.078Z,1014
2022-08-14T12:03:37.959Z,1013
2022-08-14T12:13:37.051Z,1013
2022-08-14T12:23:37.020Z,1013
2022-08-14T12:33:36.999Z,1013
2022-08-14T12:43:37.009Z,1013
2022-08-14T12:53:38.542Z,1013
2022-08-14T13:03:36.988Z,1013
2022-08-14T13:13:36.985Z,1013
2022-08-14T13:23:37.358Z,1012
2022-08-14T13:33:36.962Z,1012
2022-08-14T13:43:49.171Z,1012
2022-08-14T13:53:37.779Z,1012
2022-08-14T14:03:36.930Z,1012
2022-08-14T14:13:36.897Z,1012
2022-08-14T14:23:36.896Z,1012
2022-08-14T14:33:51.017Z,1012
2022-08-14T14:43:36.855Z,1011
2022-08-14T14:53:38.633Z,1011
2022-08-14T15:03:36.838Z,1011
2022-08-14T15:13:36.861Z,1011
2022-08-14T15:23:43.921Z,1011
2022-08-14T15:33:36.799Z,1011
2022-08-14T15:43:36.860Z,1011
2022-08-14T15:53:36.787Z,1011
2022-08-14T16:03:39.946Z,1011
2022-08-14T16:13:40.025Z,1011
2022-08-14T16:23:36.744Z,1010
2022-08-14T16:33:56.994Z,1010
2022-08-14T16:43:36.719Z,1010
2022-08-14T16:53:36.732Z,1010
2022-08-14T17:03:36.966Z,1010
2022-08-14T17:13:47.813Z,1010
2022-08-14T17:23:36.680Z,1010
2022-08-14T17:33:41.018Z,1011
2022-08-14T17:43:41.378Z,1011
2022-08-14T17:53:36.636Z,1011
2022-08-14T18:03:45.085Z,1011
2022-08-14T18:13:50.574Z,1011
2022-08-14T18:23:41.824Z,1011
2022-08-14T18:33:42.115Z,1011
2022-08-14T18:43:36.590Z,1011
2022-08-14T18:53:36.559Z,1012
2022-08-14T19:03:37.042Z,1012
2022-08-14T19:13:44.908Z,1012
2022-08-14T19:23:40.809Z,1012
2022-08-14T19:33:36.540Z,1012
2022-08-14T19:43:51.152Z,1012
2022-08-14T19:53:36.513Z,1012
2022-08-14T20:03:59.516Z,1012
2022-08-14T20:13:36.475Z,1012
2022-08-14T20:23:38.070Z,1012
2022-08-14T20:33:39.897Z,1013
2022-08-14T20:43:36.439Z,1013
2022-08-14T20:53:36.448Z,1013
2022-08-14T21:03:36.406Z,1013
2022-08-14T21:14:19.220Z,1013
2022-08-14T21:23:36.407Z,1013
2022-08-14T21:33:36.400Z,1013
2022-08-14T21:43:36.368Z,1013
2022-08-14T21:53:36.362Z,1013
2022-08-14T22:03:37.796Z,1013
2022-08-14T22:13:36.353Z,1013
2022-08-14T22:23:36.352Z,1013
2022-08-14T22:33:36.332Z,1013
2022-08-14T22:43:36.323Z,1013
2022-08-14T22:53:36.325Z,1013
2022-08-14T23:03:36.404Z,1013
2022-08-14T23:13:36.306Z,1013
2022-08-14T23:23:36.302Z,1013
2022-08-14T23:33:36.255Z,1013
2022-08-14T23:43:36.266Z,1013
2022-08-14T23:53:47.514Z,1013
